createdAt,value
2017-12-01T00:00:55.062Z,32.3
2017-12-01T00:10:55.366Z,35.1
2017-12-01T00:20:56.084Z,34.1
2017-12-01T00:30:54.733Z,33.8
2017-12-01T00:40:55.529Z,32.5
2017-12-01T00:50:55.576Z,33.8
2017-12-01T01:00:55.196Z,37.6
2017-12-01T01:10:54.963Z,36.0
2017-12-01T01:20:54.958Z,38.1
2017-12-01T01:30:54.604Z,35.6
2017-12-01T01:40:55.245Z,39.8
2017-12-01T01:50:54.874Z,32.6
2017-12-01T02:00:56.171Z,34.3
2017-12-01T02:10:55.230Z,34.8
2017-12-01T02:20:55.213Z,34.0
2017-12-01T02:30:54.939Z,34.4
2017-12-01T02:40:55.645Z,33.2
2017-12-01T02:50:55.797Z,28.5
2017-12-01T03:00:55.473Z,25.2
2017-12-01T03:10:55.405Z,26.4
2017-12-01T03:20:56.041Z,23.9
2017-12-01T03:30:54.700Z,23.3
2017-12-01T03:40:55.634Z,22.5
2017-12-01T03:50:55.633Z,22.1
2017-12-01T04:00:55.292Z,20.1
2017-12-01T04:10:55.123Z,17.3
2017-12-01T04:20:54.897Z,20.8
2017-12-01T04:30:55.979Z,21.8
2017-12-01T04:40:54.616Z,24.4
2017-12-01T04:50:56.030Z,24.0
2017-12-01T05:00:54.832Z,19.5
2017-12-01T05:10:55.772Z,19.6
2017-12-01T05:20:56.215Z,17.6
2017-12-01T05:30:55.946Z,15.6
2017-12-01T05:40:56.540Z,17.3
2017-12-01T05:50:55.153Z,18.5
2017-12-01T06:00:55.303Z,19.6
2017-12-01T06:10:56.283Z,19.5
2017-12-01T06:20:55.006Z,17.6
2017-12-01T06:30:54.871Z,18.6
2017-12-01T06:40:55.761Z,24.7
2017-12-01T06:50:55.906Z,22.3
2017-12-01T07:00:55.559Z,24.1
2017-12-01T07:10:55.179Z,27.6
2017-12-01T07:20:55.294Z,29.3
2017-12-01T07:30:55.145Z,32.9
2017-12-01T07:40:54.816Z,36.2
2017-12-01T07:50:55.926Z,37.1
2017-12-01T08:00:55.470Z,36.2
2017-12-01T08:10:55.655Z,38.2
2017-12-01T08:20:55.627Z,31.2
2017-12-01T08:30:55.578Z,26.4
2017-12-01T08:40:55.563Z,29.9
2017-12-01T08:50:55.674Z,29.2
2017-12-01T09:00:55.301Z,26.8
2017-12-01T09:10:55.704Z,23.2
2017-12-01T09:20:55.522Z,26.4
2017-12-01T09:30:55.707Z,27.0
2017-12-01T09:40:55.351Z,28.9
2017-12-01T09:50:54.991Z,22.8
2017-12-01T10:00:56.035Z,23.5
2017-12-01T10:10:55.640Z,25.8
2017-12-01T10:20:56.362Z,29.3
2017-12-01T10:30:55.142Z,29.6
2017-12-01T10:40:54.792Z,30.5
2017-12-01T10:50:55.836Z,36.1
2017-12-01T11:00:55.509Z,37.8
2017-12-01T11:10:55.314Z,38.0
2017-12-01T11:20:55.191Z,43.0
2017-12-01T11:30:54.939Z,41.2
2017-12-01T11:40:55.812Z,47.6
2017-12-01T11:50:55.985Z,48.8
2017-12-01T12:00:54.698Z,49.7
2017-12-01T12:10:55.575Z,49.6
2017-12-01T12:20:56.034Z,55.5
2017-12-01T12:30:54.690Z,38.8
2017-12-01T12:40:55.585Z,37.2
2017-12-01T12:50:55.214Z,33.2
2017-12-01T13:00:54.957Z,30.3
2017-12-01T13:10:55.551Z,24.8
2017-12-01T13:20:55.671Z,26.8
2017-12-01T13:30:55.262Z,31.1
2017-12-01T13:40:54.853Z,30.9
2017-12-01T13:50:55.822Z,31.6
2017-12-01T14:00:56.165Z,33.7
2017-12-01T14:10:55.167Z,36.1
2017-12-01T14:20:54.870Z,28.7
2017-12-01T14:30:55.477Z,30.1
2017-12-01T14:40:55.145Z,30.1
2017-12-01T14:50:54.908Z,28.0
2017-12-01T15:00:56.112Z,34.9
2017-12-01T15:10:54.977Z,39.0
2017-12-01T15:20:55.106Z,42.5
2017-12-01T15:30:55.370Z,40.0
2017-12-01T15:40:55.138Z,43.5
2017-12-01T15:50:55.182Z,47.2
2017-12-01T16:00:55.221Z,47.0
2017-12-01T16:10:54.875Z,43.4
2017-12-01T16:20:54.616Z,44.3
2017-12-01T16:30:55.406Z,47.1
2017-12-01T16:40:55.031Z,55.0
2017-12-01T16:50:55.273Z,55.5
2017-12-01T17:00:55.445Z,56.3
2017-12-01T17:10:55.263Z,62.2
2017-12-01T17:20:55.579Z,62.0
2017-12-01T17:30:55.239Z,64.0
2017-12-01T17:40:55.055Z,61.7
2017-12-01T17:50:55.209Z,70.6
2017-12-01T18:00:55.025Z,70.8
2017-12-01T18:10:54.850Z,86.4
2017-12-01T18:20:54.592Z,97.0
2017-12-01T18:30:55.568Z,90.3
2017-12-01T18:40:55.626Z,120.1
2017-12-01T18:50:56.031Z,147.6
2017-12-01T19:00:55.057Z,155.7
2017-12-01T19:10:55.303Z,130.3
2017-12-01T19:20:55.798Z,146.3
2017-12-01T19:30:55.436Z,150.8
2017-12-01T19:40:55.473Z,135.6
2017-12-01T19:50:55.478Z,117.4
2017-12-01T20:00:55.130Z,127.2
2017-12-01T20:10:55.317Z,156.9
2017-12-01T20:20:55.318Z,154.1
2017-12-01T20:30:55.327Z,167.2
2017-12-01T20:40:55.555Z,207.1
2017-12-01T20:50:55.422Z,199.1
2017-12-01T21:00:55.083Z,210.4
2017-12-01T21:10:55.063Z,212.0
2017-12-01T21:20:55.127Z,219.6
2017-12-01T21:30:54.973Z,195.7
2017-12-01T21:40:54.722Z,268.4
2017-12-01T21:50:56.273Z,185.8
2017-12-01T22:00:55.353Z,196.5
2017-12-01T22:10:56.074Z,214.8
2017-12-01T22:20:54.927Z,220.8
2017-12-01T22:30:55.614Z,217.6
2017-12-01T22:40:55.339Z,216.2
2017-12-01T22:50:55.126Z,204.2
2017-12-01T23:00:54.892Z,185.8
2017-12-01T23:10:55.877Z,225.6
2017-12-01T23:20:55.096Z,171.3
2017-12-01T23:30:54.868Z,236.8
2017-12-01T23:40:58.846Z,212.3
2017-12-01T23:50:55.935Z,212.9
